Time;durP1;ratioP1;P1;durP2;ratioP2;P2;SDS_P1;SDS_P2;PMS_P1;PMS_P2;Temp;Humidity;BMP_temperature;BMP_pressure;BME280_temperature;BME280_humidity;BME280_pressure;Samples;Min_cycle;Max_cycle;Signal;HPM_P1;HPM_P2
2023/05/29 00:01:13;;;;;;;144.07;130.18;;;;;;;14.29;100.00;100927.81;5006825;28;20502;-80
2023/05/29 00:03:40;;;;;;;145.32;130.48;;;;;;;14.34;100.00;100933.28;5001699;28;20058;-78
2023/05/29 00:06:10;;;;;;;135.98;121.82;;;;;;;14.37;100.00;100940.84;5011313;28;20053;-78
2023/05/29 00:08:38;;;;;;;210.77;193.82;;;;;;;14.31;100.00;100933.72;5011245;28;20089;-78
2023/05/29 00:11:07;;;;;;;167.15;149.48;;;;;;;13.99;100.00;100928.59;5007724;28;20045;-77
2023/05/29 00:13:36;;;;;;;137.25;123.60;;;;;;;14.13;100.00;100939.91;5009210;28;20126;-80
2023/05/29 00:16:04;;;;;;;147.95;134.00;;;;;;;14.19;100.00;100942.53;5010120;28;20688;-80
2023/05/29 00:18:31;;;;;;;133.48;119.20;;;;;;;14.14;100.00;100945.03;5005466;28;20136;-78
2023/05/29 00:20:58;;;;;;;151.35;136.80;;;;;;;14.33;100.00;100942.34;5008115;28;20053;-77
2023/05/29 00:23:27;;;;;;;136.60;117.80;;;;;;;13.93;100.00;100943.63;5001016;28;20572;-77
2023/05/29 00:26:02;;;;;;;121.45;109.22;;;;;;;14.32;100.00;100943.41;5006709;28;20119;-78
2023/05/29 00:28:30;;;;;;;138.27;124.13;;;;;;;14.43;100.00;100946.13;5006171;28;20112;-78
2023/05/29 00:30:57;;;;;;;119.13;106.75;;;;;;;14.27;100.00;100936.03;5006955;28;20057;-78
2023/05/29 00:33:24;;;;;;;122.47;109.53;;;;;;;14.30;100.00;100938.25;5007381;28;20688;-77
2023/05/29 00:35:51;;;;;;;118.88;107.22;;;;;;;14.55;100.00;100942.69;5010559;28;20046;-77
2023/05/29 00:38:18;;;;;;;129.00;116.55;;;;;;;14.60;100.00;100948.19;5007864;28;20497;-77
2023/05/29 00:40:45;;;;;;;115.07;103.57;;;;;;;14.43;100.00;100943.47;5007497;28;20045;-78
2023/05/29 00:43:14;;;;;;;136.43;124.57;;;;;;;14.53;100.00;100939.47;5007781;28;20422;-78
2023/05/29 00:45:42;;;;;;;105.72;95.22;;;;;;;14.49;100.00;100935.56;5008297;28;20041;-78
2023/05/29 00:48:09;;;;;;;116.30;105.38;;;;;;;14.40;100.00;100935.06;5005637;28;20053;-78
2023/05/29 00:50:36;;;;;;;156.52;113.13;;;;;;;14.12;100.00;100931.09;5007364;28;20050;-77
2023/05/29 00:53:09;;;;;;;119.53;107.55;;;;;;;14.30;100.00;100930.25;5005309;28;20045;-77
2023/05/29 00:55:36;;;;;;;142.75;130.43;;;;;;;14.17;100.00;100930.44;5003876;28;20046;-77
2023/05/29 00:58:04;;;;;;;147.82;133.65;;;;;;;14.18;100.00;100932.84;5008718;28;20078;-77
2023/05/29 01:00:32;;;;;;;131.25;117.85;;;;;;;13.98;100.00;100942.97;5003292;28;20042;-77
2023/05/29 01:03:05;;;;;;;138.30;125.82;;;;;;;14.09;100.00;100933.41;5009677;28;20133;-77
2023/05/29 01:05:34;;;;;;;138.07;124.85;;;;;;;14.15;100.00;100933.31;5008039;28;20454;-77
2023/05/29 01:08:01;;;;;;;131.75;119.55;;;;;;;14.04;100.00;100928.75;5005587;28;20041;-78
2023/05/29 01:10:29;;;;;;;149.07;135.48;;;;;;;14.15;100.00;100933.31;5009391;28;20053;-78
2023/05/29 01:13:00;;;;;;;138.65;126.07;;;;;;;14.22;100.00;100941.25;5005072;28;20048;-77
2023/05/29 01:15:37;;;;;;;138.93;126.13;;;;;;;13.91;100.00;100936.88;5009504;28;20049;-77
2023/05/29 01:18:31;;;;;;;127.57;114.20;;;;;;;13.73;100.00;100940.34;5004176;28;20050;-78
2023/05/29 01:21:08;;;;;;;132.10;120.28;;;;;;;14.00;100.00;100943.56;5009463;28;20045;-77
2023/05/29 01:23:56;;;;;;;123.60;112.13;;;;;;;13.63;100.00;100946.22;5004784;28;20050;-77
2023/05/29 01:26:46;;;;;;;112.72;102.32;;;;;;;13.87;100.00;100935.72;5002329;28;20105;-80
2023/05/29 01:29:25;;;;;;;128.85;116.38;;;;;;;13.88;100.00;100937.31;5003464;28;20073;-80
2023/05/29 01:32:01;;;;;;;136.27;122.32;;;;;;;13.82;100.00;100936.34;5008608;28;20573;-80
2023/05/29 01:34:34;;;;;;;125.85;110.32;;;;;;;13.85;100.00;100929.75;5008671;28;20054;-80
2023/05/29 01:37:00;;;;;;;131.82;117.60;;;;;;;13.68;100.00;100925.03;5011292;28;20048;-77
2023/05/29 01:39:30;;;;;;;126.38;114.20;;;;;;;13.82;100.00;100930.22;5014018;28;20049;-78
2023/05/29 01:42:03;;;;;;;146.95;132.48;;;;;;;14.03;100.00;100923.59;5010154;28;20049;-77
2023/05/29 01:44:31;;;;;;;177.50;162.05;;;;;;;13.92;100.00;100917.19;5011601;28;20062;-78
2023/05/29 01:46:58;;;;;;;156.77;141.80;;;;;;;13.62;100.00;100917.91;5006898;28;20057;-77
2023/05/29 01:49:27;;;;;;;144.02;130.30;;;;;;;13.64;100.00;100921.13;5008571;28;20432;-78
2023/05/29 01:52:01;;;;;;;155.23;140.27;;;;;;;13.61;100.00;100912.75;5013402;28;20062;-78
2023/05/29 01:54:28;;;;;;;167.82;151.52;;;;;;;13.59;100.00;100910.34;5012620;28;20437;-78
2023/05/29 01:56:55;;;;;;;168.02;153.32;;;;;;;13.82;100.00;100904.31;5010839;28;20049;-77
2023/05/29 01:59:31;;;;;;;152.02;136.88;;;;;;;13.77;100.00;100908.69;5013291;28;20501;-78
2023/05/29 02:02:06;;;;;;;180.30;164.40;;;;;;;13.74;100.00;100909.97;5011817;28;20429;-78
2023/05/29 02:04:34;;;;;;;191.27;174.98;;;;;;;13.63;100.00;100910.69;5011851;28;20213;-77
2023/05/29 02:07:02;;;;;;;169.95;155.07;;;;;;;13.62;100.00;100906.41;5012049;28;20050;-78
2023/05/29 02:09:29;;;;;;;174.85;159.85;;;;;;;13.66;100.00;100918.25;5013276;28;20509;-78
2023/05/29 02:11:55;;;;;;;182.02;166.95;;;;;;;13.71;100.00;100913.09;5011227;28;20054;-79
2023/05/29 02:14:24;;;;;;;170.43;154.80;;;;;;;13.71;100.00;100916.56;5008139;28;21265;-79
2023/05/29 02:16:54;;;;;;;158.77;143.55;;;;;;;13.58;100.00;100921.22;5012254;28;20140;-79
2023/05/29 02:19:25;;;;;;;166.43;151.02;;;;;;;13.66;100.00;100915.59;5009615;28;20046;-80
2023/05/29 02:21:51;;;;;;;164.18;148.50;;;;;;;13.85;100.00;100919.91;5012603;28;20136;-78
2023/05/29 02:24:18;;;;;;;153.75;138.88;;;;;;;13.87;100.00;100923.16;5008663;28;20559;-79
2023/05/29 02:26:45;;;;;;;154.80;139.68;;;;;;;13.79;100.00;100919.97;5007523;28;20460;-80
2023/05/29 02:29:13;;;;;;;162.88;146.90;;;;;;;13.83;100.00;100922.00;5011864;28;20505;-79
2023/05/29 02:31:41;;;;;;;147.85;132.25;;;;;;;13.78;100.00;100921.03;5008850;28;20057;-79
2023/05/29 02:34:09;;;;;;;146.02;130.93;;;;;;;13.85;100.00;100927.91;5009667;28;20053;-80
2023/05/29 02:36:38;;;;;;;184.57;166.60;;;;;;;13.52;100.00;100936.25;5013451;28;20050;-77
2023/05/29 02:39:05;;;;;;;203.32;184.68;;;;;;;13.54;100.00;100936.03;5009800;28;20053;-78
2023/05/29 02:41:35;;;;;;;162.07;145.60;;;;;;;13.58;100.00;100932.69;4998451;28;20042;-78
2023/05/29 02:44:02;;;;;;;153.40;138.35;;;;;;;13.61;100.00;100937.59;5005413;28;20061;-79
2023/05/29 02:46:31;;;;;;;134.98;120.00;;;;;;;13.69;100.00;100931.97;5009283;28;20054;-77
2023/05/29 02:49:01;;;;;;;127.68;114.88;;;;;;;13.75;100.00;100932.94;5005806;28;20065;-79
2023/05/29 02:51:29;;;;;;;123.95;107.60;;;;;;;13.66;100.00;100936.94;4997387;28;20051;-79
2023/05/29 02:53:59;;;;;;;117.63;104.97;;;;;;;13.70;100.00;100933.59;5000961;28;20078;-78
2023/05/29 02:56:26;;;;;;;117.45;104.97;;;;;;;13.50;100.00;100941.81;5003811;28;20070;-77
2023/05/29 02:58:55;;;;;;;115.32;102.70;;;;;;;13.42;100.00;100935.94;5010376;28;20441;-77
2023/05/29 03:01:25;;;;;;;117.35;104.88;;;;;;;13.68;100.00;100942.88;5009504;28;20053;-78
2023/05/29 03:03:58;;;;;;;114.95;103.30;;;;;;;13.74;100.00;100934.00;5002840;28;20050;-78
2023/05/29 03:06:25;;;;;;;107.65;96.60;;;;;;;13.62;100.00;100938.44;5008299;28;20054;-77
2023/05/29 03:08:53;;;;;;;103.25;92.65;;;;;;;13.69;100.00;100933.84;5004442;28;20112;-77
2023/05/29 03:11:23;;;;;;;106.35;95.30;;;;;;;13.74;100.00;100934.81;5011712;28;20058;-77
2023/05/29 03:14:03;;;;;;;108.10;97.60;;;;;;;13.84;100.00;100933.47;5008623;28;20050;-78
2023/05/29 03:16:46;;;;;;;107.75;96.80;;;;;;;13.70;100.00;100936.28;5011397;28;20461;-78
2023/05/29 03:19:13;;;;;;;101.55;90.97;;;;;;;13.78;100.00;100943.19;5006102;28;20046;-79
2023/05/29 03:21:40;;;;;;;109.32;97.95;;;;;;;13.73;100.00;100935.81;5010669;28;20057;-79
2023/05/29 03:24:16;;;;;;;107.82;97.20;;;;;;;13.74;100.00;100934.00;5010730;28;20050;-79
2023/05/29 03:26:58;;;;;;;106.40;96.18;;;;;;;13.77;100.00;100936.22;5011167;28;20054;-79
2023/05/29 03:29:25;;;;;;;102.57;92.18;;;;;;;13.75;100.00;100935.63;4998718;28;20054;-79
2023/05/29 03:31:52;;;;;;;106.03;95.72;;;;;;;13.84;100.00;100936.16;5002713;28;20065;-79
2023/05/29 03:34:20;;;;;;;98.20;89.10;;;;;;;13.83;100.00;100939.84;5012246;28;20054;-80
2023/05/29 03:36:47;;;;;;;98.05;88.75;;;;;;;13.88;100.00;100935.47;5011985;28;20046;-79
2023/05/29 03:39:14;;;;;;;100.60;90.82;;;;;;;13.92;100.00;100935.88;4998488;28;20077;-79
2023/05/29 03:41:44;;;;;;;97.47;88.18;;;;;;;14.06;100.00;100942.66;5011648;28;20068;-80
2023/05/29 03:44:11;;;;;;;97.40;87.80;;;;;;;13.92;100.00;100950.03;5010713;28;20426;-80
2023/05/29 03:46:38;;;;;;;101.13;91.22;;;;;;;14.03;100.00;100937.78;5006495;28;20057;-79
2023/05/29 03:49:07;;;;;;;99.90;90.63;;;;;;;13.98;100.00;100948.31;5006168;28;20538;-79
2023/05/29 03:51:34;;;;;;;95.55;86.15;;;;;;;13.92;100.00;100952.69;5009818;28;20501;-80
2023/05/29 03:54:00;;;;;;;105.47;95.07;;;;;;;14.13;100.00;100945.25;5009873;28;20499;-80
2023/05/29 03:56:39;;;;;;;100.50;90.78;;;;;;;14.18;100.00;100951.56;5008601;28;20038;-80
2023/05/29 03:59:07;;;;;;;102.53;92.90;;;;;;;14.18;100.00;100959.56;4994888;28;20061;-80
2023/05/29 04:01:34;;;;;;;100.80;90.55;;;;;;;14.27;100.00;100953.94;5004979;28;20050;-78
2023/05/29 04:04:26;;;;;;;104.93;94.72;;;;;;;14.52;100.00;100961.84;5004205;28;20053;-78
2023/05/29 04:06:53;;;;;;;105.55;95.25;;;;;;;14.29;100.00;100958.03;5005090;28;20049;-78
2023/05/29 04:09:29;;;;;;;101.47;91.65;;;;;;;14.27;100.00;100965.44;5008745;28;20049;-78
2023/05/29 04:11:56;;;;;;;102.68;92.55;;;;;;;14.48;100.00;100971.34;4996025;28;20048;-78
2023/05/29 04:14:24;;;;;;;107.32;96.57;;;;;;;14.59;100.00;100970.63;5011152;28;20068;-77
2023/05/29 04:16:52;;;;;;;101.88;91.68;;;;;;;14.60;100.00;100970.38;5003072;28;20450;-78
2023/05/29 04:19:21;;;;;;;105.13;94.63;;;;;;;14.79;100.00;100968.47;5007925;28;20050;-78
2023/05/29 04:21:49;;;;;;;102.40;91.93;;;;;;;14.84;100.00;100976.63;4996282;28;20051;-77
2023/05/29 04:24:16;;;;;;;104.00;92.75;;;;;;;14.55;100.00;100978.25;5010242;28;20049;-78
2023/05/29 04:26:43;;;;;;;102.22;91.63;;;;;;;14.60;100.00;100972.25;5011096;28;20050;-80
2023/05/29 04:29:12;;;;;;;103.18;92.57;;;;;;;14.69;100.00;100976.22;5007055;28;20433;-80
2023/05/29 04:31:43;;;;;;;109.05;97.88;;;;;;;14.98;100.00;100966.56;5009221;28;20050;-80
2023/05/29 04:34:10;;;;;;;109.20;97.93;;;;;;;14.98;100.00;100971.13;5008481;28;20077;-80
2023/05/29 04:36:38;;;;;;;112.55;100.68;;;;;;;14.97;100.00;100972.94;5009081;28;20057;-80
2023/05/29 04:39:06;;;;;;;110.60;99.28;;;;;;;15.06;100.00;100962.75;5003110;28;20050;-80
2023/05/29 04:41:33;;;;;;;111.28;99.13;;;;;;;15.08;100.00;100966.81;5008035;28;20535;-80
2023/05/29 04:43:59;;;;;;;116.05;102.35;;;;;;;15.18;100.00;100971.59;5008536;28;20072;-77
2023/05/29 04:46:26;;;;;;;119.35;103.20;;;;;;;15.18;100.00;100968.91;5009574;28;20050;-78
2023/05/29 04:49:04;;;;;;;110.80;97.22;;;;;;;15.17;100.00;100974.53;5008860;28;20065;-80
2023/05/29 04:51:33;;;;;;;117.35;104.75;;;;;;;15.24;100.00;100973.34;5007530;28;20045;-80
2023/05/29 04:54:24;;;;;;;115.85;103.97;;;;;;;15.09;100.00;100970.31;5004826;28;20050;-80
2023/05/29 04:56:50;;;;;;;117.28;105.32;;;;;;;14.86;100.00;100982.59;5006492;28;20049;-80
2023/05/29 04:59:17;;;;;;;119.97;107.80;;;;;;;14.81;100.00;100981.63;5009883;28;20050;-78
2023/05/29 05:01:44;;;;;;;129.60;117.10;;;;;;;15.22;100.00;100982.66;5008708;28;20054;-77
2023/05/29 05:04:27;;;;;;;124.22;111.53;;;;;;;15.31;100.00;100984.78;5008515;28;20494;-78
2023/05/29 05:06:54;;;;;;;122.60;109.88;;;;;;;15.52;100.00;100987.91;5011390;28;20126;-78
2023/05/29 05:09:20;;;;;;;118.93;106.70;;;;;;;15.36;100.00;100986.75;5011555;28;20057;-78
2023/05/29 05:11:47;;;;;;;117.97;105.70;;;;;;;15.58;100.00;100987.00;5008189;28;20053;-78
2023/05/29 05:14:24;;;;;;;116.97;104.88;;;;;;;15.79;100.00;100982.94;5012220;28;20057;-77
2023/05/29 05:16:51;;;;;;;124.03;111.47;;;;;;;16.00;100.00;100982.34;5011438;28;20480;-78
2023/05/29 05:19:29;;;;;;;122.75;109.35;;;;;;;16.07;100.00;100989.44;5013242;28;20136;-78
2023/05/29 05:21:58;;;;;;;120.20;108.65;;;;;;;16.22;100.00;100990.59;5013063;28;20576;-78
2023/05/29 05:24:32;;;;;;;116.32;104.32;;;;;;;16.22;100.00;100992.47;5009412;28;20105;-78
2023/05/29 05:26:59;;;;;;;122.93;110.53;;;;;;;16.34;100.00;100995.09;5011238;28;20111;-80
2023/05/29 05:29:26;;;;;;;125.53;112.40;;;;;;;16.31;100.00;100992.88;5007998;28;20054;-80
2023/05/29 05:31:56;;;;;;;130.68;117.60;;;;;;;16.59;100.00;100984.09;5004423;28;20049;-80
2023/05/29 05:34:22;;;;;;;141.65;127.68;;;;;;;16.38;100.00;100980.19;5011456;28;20050;-80
2023/05/29 05:36:51;;;;;;;141.38;127.13;;;;;;;16.44;100.00;100985.41;5014297;28;20637;-80
2023/05/29 05:39:18;;;;;;;135.95;122.35;;;;;;;16.71;100.00;100982.16;5005580;28;20048;-80
2023/05/29 05:41:59;;;;;;;144.65;130.18;;;;;;;16.90;100.00;100972.88;5011029;28;20060;-81
2023/05/29 05:44:34;;;;;;;153.45;138.10;;;;;;;17.27;100.00;100980.47;5008317;28;20053;-80
2023/05/29 05:47:02;;;;;;;158.43;143.15;;;;;;;17.16;100.00;100976.00;5011506;28;20057;-78
2023/05/29 05:49:32;;;;;;;161.65;145.43;;;;;;;16.92;100.00;100976.13;5006413;28;20058;-80
2023/05/29 05:52:01;;;;;;;147.20;132.60;;;;;;;17.17;100.00;100991.84;5013977;28;20057;-80
2023/05/29 05:54:28;;;;;;;157.02;142.15;;;;;;;16.84;100.00;100981.06;5000211;28;20054;-78
2023/05/29 05:56:57;;;;;;;168.70;153.80;;;;;;;16.88;100.00;100987.56;5012264;28;20411;-78
2023/05/29 05:59:23;;;;;;;166.23;150.65;;;;;;;17.02;100.00;100988.09;5001407;28;20056;-78
2023/05/29 06:01:51;;;;;;;157.93;142.98;;;;;;;16.88;100.00;100983.06;5011291;28;20054;-81
2023/05/29 06:04:25;;;;;;;157.40;142.13;;;;;;;17.23;100.00;100990.06;5008806;28;20480;-81
2023/05/29 06:06:52;;;;;;;149.45;134.75;;;;;;;17.46;100.00;100989.09;5004458;28;20137;-81
2023/05/29 06:09:21;;;;;;;158.15;142.85;;;;;;;16.97;100.00;100988.00;5009992;28;20513;-81
2023/05/29 06:11:53;;;;;;;144.20;130.23;;;;;;;17.02;100.00;100991.59;5010908;28;20053;-81
2023/05/29 06:14:24;;;;;;;146.90;132.60;;;;;;;17.30;100.00;100987.22;5008639;28;20433;-80
2023/05/29 06:16:54;;;;;;;151.07;136.32;;;;;;;17.20;100.00;100989.75;5011927;28;20513;-80
2023/05/29 06:19:23;;;;;;;168.68;152.68;;;;;;;17.37;100.00;100996.75;5009596;28;20429;-81
2023/05/29 06:21:50;;;;;;;153.18;138.73;;;;;;;17.46;100.00;100999.84;5013754;28;21702;-81
2023/05/29 06:24:17;;;;;;;141.45;127.85;;;;;;;17.51;100.00;100997.22;5007427;28;20046;-78
2023/05/29 06:26:46;;;;;;;144.20;130.18;;;;;;;17.48;100.00;100999.59;5009853;28;20046;-81
2023/05/29 06:29:13;;;;;;;136.82;123.43;;;;;;;17.64;100.00;101004.16;5013473;28;20046;-81
2023/05/29 06:31:40;;;;;;;150.90;135.65;;;;;;;17.62;100.00;101001.69;5011319;28;20056;-81
2023/05/29 06:34:16;;;;;;;166.15;150.07;;;;;;;18.10;100.00;100999.44;5010480;28;20065;-81
2023/05/29 06:36:43;;;;;;;165.88;150.02;;;;;;;18.50;100.00;100995.63;5013403;28;20046;-81
2023/05/29 06:39:10;;;;;;;169.15;153.07;;;;;;;18.44;100.00;100988.56;5012560;28;20077;-81
2023/05/29 06:41:46;;;;;;;173.70;157.45;;;;;;;18.72;100.00;100990.22;5011803;28;20054;-81
2023/05/29 06:44:12;;;;;;;156.85;141.80;;;;;;;18.04;100.00;100995.06;5011144;28;20046;-78
2023/05/29 06:46:39;;;;;;;157.10;142.23;;;;;;;17.82;100.00;100989.63;5005185;28;20466;-79
2023/05/29 06:49:09;;;;;;;148.80;134.35;;;;;;;18.37;100.00;100986.06;5011319;28;20444;-81
2023/05/29 06:51:46;;;;;;;156.18;141.38;;;;;;;18.21;100.00;100990.44;5013162;28;20049;-81
2023/05/29 06:54:26;;;;;;;157.82;143.23;;;;;;;17.98;100.00;100996.06;5008613;28;20046;-81
2023/05/29 06:56:55;;;;;;;140.60;126.43;;;;;;;18.25;100.00;100977.31;5012989;28;20497;-81
2023/05/29 06:59:21;;;;;;;150.27;135.38;;;;;;;18.73;100.00;100978.44;5012554;28;20088;-81
2023/05/29 07:01:57;;;;;;;147.73;133.52;;;;;;;18.76;100.00;100976.03;5009727;28;20065;-81
2023/05/29 07:04:24;;;;;;;145.68;131.48;;;;;;;18.47;100.00;100978.09;5000463;28;20057;-81
2023/05/29 07:06:51;;;;;;;150.13;135.85;;;;;;;18.34;100.00;100973.13;5012091;28;20061;-81
2023/05/29 07:09:27;;;;;;;149.25;135.35;;;;;;;18.30;100.00;100978.16;5009430;28;20515;-80
2023/05/29 07:11:57;;;;;;;151.15;136.30;;;;;;;18.95;100.00;100981.88;5008892;28;20054;-81
2023/05/29 07:14:24;;;;;;;160.40;145.73;;;;;;;19.60;100.00;100987.22;5011053;28;20068;-78
2023/05/29 07:16:51;;;;;;;173.18;157.13;;;;;;;19.78;100.00;100976.03;5009943;28;20429;-81
2023/05/29 07:19:17;;;;;;;171.88;156.50;;;;;;;19.36;100.00;100976.00;5010076;28;20038;-77
2023/05/29 07:21:44;;;;;;;164.25;150.13;;;;;;;19.61;100.00;100972.69;5009339;28;20050;-78
2023/05/29 07:24:19;;;;;;;152.23;139.05;;;;;;;19.65;100.00;100971.94;5010845;28;20066;-78
2023/05/29 07:26:46;;;;;;;154.13;140.63;;;;;;;19.88;100.00;100978.00;5008616;28;20046;-78
2023/05/29 07:29:16;;;;;;;162.02;147.77;;;;;;;20.03;100.00;100983.47;5006442;28;20048;-77
2023/05/29 07:31:44;;;;;;;134.95;123.80;;;;;;;19.74;100.00;100985.72;5005529;28;20133;-78
2023/05/29 07:34:10;;;;;;;135.70;124.45;;;;;;;20.14;100.00;100981.59;5005256;28;20049;-78
2023/05/29 07:36:37;;;;;;;126.90;116.32;;;;;;;19.75;100.00;100995.41;5007925;28;20049;-78
2023/05/29 07:39:05;;;;;;;136.13;125.03;;;;;;;19.84;100.00;100993.84;5009376;28;20473;-77
2023/05/29 07:41:32;;;;;;;136.93;125.22;;;;;;;19.74;100.00;101007.28;5007753;28;20050;-79
2023/05/29 07:43:59;;;;;;;127.57;117.38;;;;;;;19.56;100.00;101003.09;5012132;28;20057;-77
2023/05/29 07:46:27;;;;;;;134.75;123.65;;;;;;;19.92;100.00;101011.44;4992783;28;20069;-78
2023/05/29 07:49:01;;;;;;;134.88;123.53;;;;;;;19.83;100.00;101007.59;4992043;28;20057;-78
2023/05/29 07:51:28;;;;;;;133.65;122.28;;;;;;;19.64;100.00;101007.19;4991557;28;20054;-77
2023/05/29 07:53:54;;;;;;;147.07;134.07;;;;;;;19.64;100.00;101007.19;4991599;28;20114;-77
2023/05/29 07:56:22;;;;;;;148.93;135.52;;;;;;;20.09;100.00;101022.03;4992406;28;20434;-82
2023/05/29 07:58:48;;;;;;;146.85;134.35;;;;;;;19.74;100.00;101018.06;5004284;28;20123;-82
2023/05/29 08:01:15;;;;;;;133.57;121.75;;;;;;;19.64;100.00;101017.97;5012129;28;20493;-82
2023/05/29 08:04:07;;;;;;;136.52;124.70;;;;;;;19.57;100.00;101012.78;5012496;28;20060;-81
2023/05/29 08:06:42;;;;;;;136.85;125.28;;;;;;;19.44;100.00;101014.03;5012589;28;20042;-82
2023/05/29 08:09:15;;;;;;;140.82;128.63;;;;;;;19.92;100.00;101018.72;5012744;28;20064;-82
2023/05/29 08:11:47;;;;;;;152.40;139.57;;;;;;;19.78;100.00;101013.75;5012586;28;20053;-82
2023/05/29 08:14:15;;;;;;;145.75;132.82;;;;;;;19.71;100.00;100997.03;5012761;28;20054;-81
2023/05/29 08:16:41;;;;;;;138.10;126.40;;;;;;;19.56;100.00;101003.09;5012031;28;20080;-81
2023/05/29 08:19:18;;;;;;;134.85;123.65;;;;;;;19.65;100.00;100993.47;4996075;28;20046;-82
2023/05/29 08:21:44;;;;;;;156.30;142.43;;;;;;;20.20;100.00;100990.53;5008284;28;20057;-82
2023/05/29 08:24:23;;;;;;;125.78;115.22;;;;;;;19.88;100.00;100991.47;5012278;28;20041;-82
2023/05/29 08:26:53;;;;;;;138.38;126.40;;;;;;;20.40;100.00;100979.84;5012457;28;20050;-82
2023/05/29 08:29:20;;;;;;;152.25;140.05;;;;;;;20.81;100.00;100978.06;5012278;28;20053;-82
2023/05/29 08:32:01;;;;;;;154.13;142.13;;;;;;;21.13;100.00;100973.50;5012268;28;20054;-82
2023/05/29 08:34:41;;;;;;;142.13;131.43;;;;;;;21.00;100.00;100983.75;5012485;28;20403;-82
2023/05/29 08:37:36;;;;;;;149.18;137.30;;;;;;;21.31;100.00;100982.97;5004287;28;20049;-82
2023/05/29 08:40:07;;;;;;;128.88;118.28;;;;;;;20.24;100.00;100983.53;5005708;28;20136;-77
2023/05/29 08:42:44;;;;;;;124.60;114.38;;;;;;;20.45;100.00;100981.72;5006949;28;20073;-78
2023/05/29 08:45:14;;;;;;;131.52;120.75;;;;;;;20.66;100.00;100978.03;5007803;28;20057;-78
2023/05/29 08:47:42;;;;;;;165.00;150.60;;;;;;;21.30;100.00;100986.72;5000868;28;20502;-82
2023/05/29 08:50:12;;;;;;;160.30;147.52;;;;;;;21.13;100.00;100977.00;5008834;28;20050;-82
2023/05/29 08:52:40;;;;;;;156.88;144.25;;;;;;;21.44;100.00;100985.94;4992336;28;20533;-82
2023/05/29 08:55:08;;;;;;;164.63;152.07;;;;;;;21.82;100.00;100981.00;4992161;28;20047;-78
2023/05/29 08:57:43;;;;;;;158.65;146.77;;;;;;;22.21;100.00;100974.97;5008317;28;20532;-81
2023/05/29 09:00:12;;;;;;;133.82;123.82;;;;;;;22.13;100.00;100965.47;5011796;28;20053;-81
2023/05/29 09:02:39;;;;;;;159.38;147.05;;;;;;;22.50;100.00;100958.81;5000085;28;20069;-78
2023/05/29 09:05:07;;;;;;;124.28;115.05;;;;;;;22.47;100.00;100953.97;5001984;28;20545;-82
2023/05/29 09:07:38;;;;;;;114.15;105.65;;;;;;;21.93;100.00;100952.84;5007343;28;20494;-81
2023/05/29 09:10:06;;;;;;;132.90;123.00;;;;;;;21.89;100.00;100957.19;4992444;28;20068;-82
2023/05/29 09:12:33;;;;;;;147.35;136.07;;;;;;;21.95;100.00;100961.50;4993172;28;20058;-82
2023/05/29 09:15:00;;;;;;;142.55;132.05;;;;;;;22.00;100.00;100965.25;5011544;28;20050;-82
2023/05/29 09:17:33;;;;;;;112.30;104.05;;;;;;;21.88;100.00;100957.47;5011574;28;20049;-82
2023/05/29 09:20:00;;;;;;;76.93;71.30;;;;;;;22.23;100.00;100951.13;5011796;28;20512;-81
2023/05/29 09:22:27;;;;;;;71.00;65.55;;;;;;;22.59;100.00;100938.19;5011477;28;20472;-78
2023/05/29 09:24:56;;;;;;;59.47;54.65;;;;;;;22.65;100.00;100933.56;5004187;28;20045;-77
2023/05/29 09:27:23;;;;;;;46.30;42.40;;;;;;;22.31;100.00;100925.41;5006262;28;20109;-78
2023/05/29 09:29:50;;;;;;;54.83;49.97;;;;;;;22.45;100.00;100930.97;5006410;28;20061;-78
2023/05/29 09:32:19;;;;;;;51.38;47.22;;;;;;;22.24;100.00;100924.88;5004406;28;20150;-78
2023/05/29 09:34:54;;;;;;;48.67;44.40;;;;;;;22.37;100.00;100919.66;4990738;28;20441;-78
2023/05/29 09:37:23;;;;;;;46.72;41.95;;;;;;;22.28;100.00;100915.94;4992830;28;20481;-78
2023/05/29 09:40:01;;;;;;;40.80;37.15;;;;;;;22.27;100.00;100916.19;5008336;28;20561;-78
2023/05/29 09:42:31;;;;;;;43.33;39.72;;;;;;;22.45;100.00;100920.16;4991247;28;20518;-78
2023/05/29 09:45:04;;;;;;;44.13;40.22;;;;;;;22.57;100.00;100912.50;5009948;28;20050;-78
2023/05/29 09:47:35;;;;;;;44.35;40.25;;;;;;;22.73;100.00;100921.34;5010983;28;20629;-78
2023/05/29 09:50:02;;;;;;;38.35;35.15;;;;;;;22.39;100.00;100913.97;4991183;28;20469;-78
2023/05/29 09:52:32;;;;;;;52.70;48.53;;;;;;;22.59;100.00;100913.03;4993455;28;20062;-78
2023/05/29 09:55:06;;;;;;;33.22;30.42;;;;;;;22.02;100.00;100907.09;5000261;28;20042;-78
2023/05/29 09:57:41;;;;;;;33.72;30.63;;;;;;;22.76;100.00;100896.41;4996336;28;20059;-78
2023/05/29 10:00:13;;;;;;;33.90;30.73;;;;;;;22.78;100.00;100900.41;5008584;28;20520;-78
2023/05/29 10:02:46;;;;;;;35.42;32.30;;;;;;;22.47;100.00;100904.47;5010179;28;20465;-78
2023/05/29 10:05:15;;;;;;;38.83;35.50;;;;;;;22.68;100.00;100899.72;5011779;28;20046;-82
2023/05/29 10:08:02;;;;;;;42.53;38.72;;;;;;;22.97;100.00;100902.50;5014586;28;20054;-81
2023/05/29 10:10:30;;;;;;;45.38;41.33;;;;;;;23.23;100.00;100892.22;5014493;28;20046;-82
2023/05/29 10:12:58;;;;;;;48.72;44.53;;;;;;;23.66;100.00;100893.13;5014347;28;20474;-81
2023/05/29 10:16:06;;;;;;;43.65;39.78;;;;;;;23.73;100.00;100890.88;5013108;28;20498;-82
2023/05/29 10:18:38;;;;;;;45.17;41.08;;;;;;;23.83;100.00;100892.66;4949179;28;20182;-82
2023/05/29 10:21:06;;;;;;;36.92;33.72;;;;;;;23.29;100.00;100888.34;5012759;28;20057;-82
2023/05/29 10:23:46;;;;;;;34.30;31.05;;;;;;;23.53;100.00;100886.47;5006039;28;20062;-82
2023/05/29 10:26:26;;;;;;;32.33;29.42;;;;;;;22.45;100.00;100885.81;4995161;28;20438;-81
2023/05/29 10:29:00;;;;;;;45.95;41.97;;;;;;;23.87;100.00;100901.00;4994484;28;20823;-78
2023/05/29 10:31:32;;;;;;;37.35;33.95;;;;;;;23.90;100.00;100886.88;4998193;28;20120;-78
2023/05/29 10:34:14;;;;;;;36.67;33.28;;;;;;;23.06;100.00;100879.13;4994029;28;20057;-77
2023/05/29 10:36:47;;;;;;;36.50;33.38;;;;;;;23.25;100.00;100874.56;4993976;28;20050;-78
2023/05/29 10:39:17;;;;;;;38.03;34.55;;;;;;;23.58;100.00;100872.06;4994043;28;20050;-78
2023/05/29 10:41:46;;;;;;;46.25;42.30;;;;;;;23.73;100.00;100876.53;5009121;28;20058;-78
2023/05/29 10:44:41;;;;;;;39.75;36.28;;;;;;;23.41;100.00;100874.41;4996590;28;20058;-77
2023/05/29 10:47:10;;;;;;;37.25;34.00;;;;;;;23.65;100.00;100879.84;4970437;28;20499;-78
2023/05/29 10:49:51;;;;;;;34.97;31.98;;;;;;;23.32;100.00;100866.09;5001517;28;20061;-78
2023/05/29 10:52:21;;;;;;;34.53;31.35;;;;;;;23.23;100.00;100867.81;5007876;28;20069;-77
2023/05/29 10:54:56;;;;;;;32.50;29.80;;;;;;;23.10;100.00;100872.03;5005125;28;20050;-78
2023/05/29 10:57:53;;;;;;;38.05;34.75;;;;;;;23.60;100.00;100875.28;4998256;28;20057;-82
2023/05/29 11:00:26;;;;;;;37.28;33.85;;;;;;;23.45;100.00;100870.84;5011672;28;20057;-82
2023/05/29 11:02:54;;;;;;;41.33;37.70;;;;;;;23.42;100.00;100863.31;5013942;28;20046;-82
2023/05/29 11:05:23;;;;;;;38.05;34.85;;;;;;;22.89;100.00;100863.25;5013647;28;20061;-81